Time;durP1;ratioP1;P1;durP2;ratioP2;P2;SDS_P1;SDS_P2;PMS_P1;PMS_P2;Temp;Humidity;BMP_temperature;BMP_pressure;BME280_temperature;BME280_humidity;BME280_pressure;Samples;Min_cycle;Max_cycle;Signal;HPM_P1;HPM_P2
2021/03/15 00:00:55;;;;;;;3.80;1.40;;;;;;;8.35;55.36;99455.94;5096490;28;20521;-73
2021/03/15 00:03:21;;;;;;;2.78;1.83;;;;;;;8.38;55.80;99463.56;5094944;28;20036;-73
2021/03/15 00:05:46;;;;;;;4.72;1.45;;;;;;;8.38;55.29;99451.69;5094786;28;20130;-73
2021/03/15 00:08:12;;;;;;;3.63;1.90;;;;;;;8.43;54.31;99450.59;5094697;28;20115;-73
2021/03/15 00:10:38;;;;;;;4.95;2.20;;;;;;;8.37;54.16;99456.44;5094620;28;20036;-73
2021/03/15 00:13:05;;;;;;;3.10;1.63;;;;;;;8.33;54.55;99458.28;5095207;28;20051;-73
2021/03/15 00:15:34;;;;;;;1.90;1.50;;;;;;;8.21;54.54;99452.09;5096141;28;20028;-73
2021/03/15 00:18:01;;;;;;;4.22;1.65;;;;;;;8.23;54.36;99447.00;5096365;28;20024;-73
2021/03/15 00:20:26;;;;;;;3.78;1.35;;;;;;;8.14;53.04;99448.00;5094476;28;20570;-73
2021/03/15 00:22:52;;;;;;;1.67;1.42;;;;;;;8.18;53.25;99452.81;5095007;28;20111;-73
2021/03/15 00:25:19;;;;;;;4.57;1.65;;;;;;;8.14;54.91;99458.28;5095034;28;20378;-73
2021/03/15 00:27:45;;;;;;;1.83;1.50;;;;;;;8.18;54.20;99448.09;5094940;28;20050;-73
2021/03/15 00:30:14;;;;;;;4.95;1.52;;;;;;;8.09;53.61;99447.47;5094594;28;20047;-73
2021/03/15 00:32:40;;;;;;;2.40;1.75;;;;;;;8.06;53.71;99459.31;5094864;28;20366;-73
2021/03/15 00:35:08;;;;;;;2.47;1.17;;;;;;;8.06;53.57;99451.00;5078085;28;20098;-74
2021/03/15 00:37:35;;;;;;;0.90;0.80;;;;;;;8.00;52.94;99450.50;5096107;28;20111;-73
2021/03/15 00:40:00;;;;;;;0.98;0.90;;;;;;;7.94;54.96;99453.91;5095232;28;20032;-73
2021/03/15 00:42:27;;;;;;;2.13;1.25;;;;;;;7.83;54.83;99448.16;5094271;28;20036;-72
2021/03/15 00:44:53;;;;;;;2.38;1.70;;;;;;;7.84;54.43;99445.00;5094340;28;20031;-73
2021/03/15 00:47:18;;;;;;;1.08;0.98;;;;;;;7.80;54.78;99459.94;5093964;28;20371;-72
2021/03/15 00:49:44;;;;;;;2.53;1.30;;;;;;;7.69;54.06;99465.22;5096157;28;20047;-72
2021/03/15 00:52:10;;;;;;;1.60;1.50;;;;;;;7.68;54.05;99463.63;5096807;28;20542;-73
2021/03/15 00:54:37;;;;;;;1.98;1.20;;;;;;;7.69;54.20;99473.53;5097169;28;20034;-73
2021/03/15 00:57:03;;;;;;;2.00;1.30;;;;;;;7.70;55.27;99472.38;5097096;28;20122;-73
2021/03/15 00:59:28;;;;;;;1.60;1.00;;;;;;;7.68;54.12;99463.63;5097129;28;20114;-72
2021/03/15 01:01:55;;;;;;;2.03;1.10;;;;;;;7.82;53.62;99463.13;5097382;28;20028;-72
2021/03/15 01:04:21;;;;;;;2.35;1.50;;;;;;;7.73;53.47;99460.59;5096967;28;20547;-73
2021/03/15 01:06:46;;;;;;;1.02;1.00;;;;;;;7.64;53.91;99462.75;5097117;28;20028;-72
2021/03/15 01:09:13;;;;;;;0.70;0.70;;;;;;;7.73;53.88;99466.13;5080392;28;20050;-73
2021/03/15 01:11:42;;;;;;;1.30;1.25;;;;;;;7.71;55.55;99462.91;5096792;28;20028;-73
2021/03/15 01:14:09;;;;;;;1.38;1.02;;;;;;;7.75;54.87;99458.25;5096724;28;20034;-73
2021/03/15 01:16:35;;;;;;;0.82;0.73;;;;;;;7.88;55.14;99462.50;5097719;28;20110;-72
2021/03/15 01:19:03;;;;;;;0.90;0.90;;;;;;;7.88;54.69;99461.69;5114680;28;20135;-73
2021/03/15 01:21:29;;;;;;;1.63;1.13;;;;;;;7.80;56.35;99471.00;5096703;28;20038;-72
2021/03/15 01:23:55;;;;;;;3.45;1.65;;;;;;;7.73;58.11;99468.88;5096696;28;20024;-73
2021/03/15 01:26:21;;;;;;;3.88;1.52;;;;;;;7.55;56.76;99460.16;5096528;28;20031;-73
2021/03/15 01:28:47;;;;;;;2.20;1.27;;;;;;;7.56;58.57;99455.41;5096815;28;20051;-72
2021/03/15 01:31:13;;;;;;;3.53;1.35;;;;;;;7.59;57.44;99460.25;5097450;28;20359;-72
2021/03/15 01:33:39;;;;;;;3.42;1.33;;;;;;;7.58;59.20;99476.06;5095933;28;20039;-72
2021/03/15 01:36:05;;;;;;;1.25;1.15;;;;;;;7.53;57.90;99472.78;5080002;28;20031;-73
2021/03/15 01:38:30;;;;;;;4.20;1.45;;;;;;;7.70;57.63;99479.88;5096660;28;20024;-73
2021/03/15 01:40:56;;;;;;;1.70;1.60;;;;;;;7.70;57.74;99472.38;5096708;28;20397;-73
2021/03/15 01:43:22;;;;;;;2.17;1.30;;;;;;;7.67;58.22;99475.03;5096570;28;20027;-72
2021/03/15 01:45:47;;;;;;;0.90;0.90;;;;;;;7.59;57.79;99460.25;5096264;28;20477;-73
2021/03/15 01:48:13;;;;;;;1.83;0.93;;;;;;;7.53;58.15;99454.19;5096202;28;20034;-73
2021/03/15 01:50:46;;;;;;;1.42;1.10;;;;;;;7.48;56.03;99461.97;5095822;28;20052;-73
2021/03/15 01:53:14;;;;;;;3.33;1.40;;;;;;;7.49;56.16;99449.72;5096067;28;20114;-73
2021/03/15 01:55:41;;;;;;;1.40;1.13;;;;;;;7.42;57.48;99444.03;5079308;28;20035;-73
2021/03/15 01:58:07;;;;;;;2.63;1.30;;;;;;;7.24;58.02;99432.53;5079696;28;20036;-73
2021/03/15 02:00:33;;;;;;;1.70;1.60;;;;;;;7.32;56.92;99446.19;5096353;28;20080;-73
2021/03/15 02:03:01;;;;;;;3.15;1.45;;;;;;;7.29;57.36;99446.88;5114062;28;20500;-73
2021/03/15 02:05:30;;;;;;;2.03;1.48;;;;;;;7.22;58.99;99452.25;5096111;28;20515;-73
2021/03/15 02:07:56;;;;;;;1.77;1.25;;;;;;;7.22;57.67;99452.25;5096762;28;20395;-71
2021/03/15 02:10:22;;;;;;;5.57;1.60;;;;;;;7.18;60.33;99440.28;5096255;28;20123;-73
2021/03/15 02:13:13;;;;;;;2.05;1.08;;;;;;;7.19;59.86;99441.94;5096444;28;20085;-73
2021/03/15 02:16:02;;;;;;;1.42;0.98;;;;;;;7.05;58.84;99439.59;5096673;28;20023;-73
2021/03/15 02:18:33;;;;;;;1.35;1.20;;;;;;;7.07;58.76;99442.00;5097512;28;20019;-73
2021/03/15 02:21:26;;;;;;;1.52;0.82;;;;;;;7.18;56.00;99445.81;5096848;28;20031;-73
2021/03/15 02:24:08;;;;;;;1.67;0.90;;;;;;;7.09;55.65;99442.47;5096448;28;20050;-72
2021/03/15 02:26:56;;;;;;;2.17;1.00;;;;;;;7.05;54.95;99436.84;5095864;28;20122;-73
2021/03/15 02:29:58;;;;;;;1.08;0.98;;;;;;;7.20;51.58;99429.69;5095751;28;20024;-72
2021/03/15 02:32:49;;;;;;;1.85;0.90;;;;;;;7.21;51.32;99420.22;5095773;28;20131;-72
2021/03/15 02:35:24;;;;;;;1.42;0.88;;;;;;;7.28;50.54;99416.81;5095784;28;20474;-73
2021/03/15 02:38:08;;;;;;;1.27;0.70;;;;;;;7.24;51.46;99405.66;5095721;28;20123;-72
2021/03/15 02:40:41;;;;;;;1.17;0.60;;;;;;;7.30;50.85;99411.75;5095660;28;20019;-72
2021/03/15 02:43:23;;;;;;;1.10;1.02;;;;;;;7.28;50.95;99414.03;5095669;28;20038;-73
2021/03/15 02:46:20;;;;;;;2.28;0.93;;;;;;;7.29;49.38;99424.75;5079083;28;20028;-73
2021/03/15 02:48:50;;;;;;;1.67;0.95;;;;;;;7.27;49.92;99423.53;5094168;28;20031;-73
2021/03/15 02:51:19;;;;;;;0.73;0.68;;;;;;;7.26;49.94;99422.72;5095318;28;20067;-73
2021/03/15 02:53:45;;;;;;;1.33;0.70;;;;;;;7.21;52.33;99423.00;5096234;28;20023;-73
2021/03/15 02:56:24;;;;;;;0.80;0.77;;;;;;;6.98;55.08;99425.59;5095510;28;20032;-73
2021/03/15 02:58:53;;;;;;;1.55;0.90;;;;;;;6.83;56.79;99418.91;5096402;28;20115;-72
2021/03/15 03:01:21;;;;;;;3.03;1.15;;;;;;;6.70;57.63;99435.91;5095816;28;20482;-73
2021/03/15 03:03:49;;;;;;;0.93;0.90;;;;;;;6.59;58.56;99443.91;5095529;28;20055;-72
2021/03/15 03:06:17;;;;;;;1.05;0.70;;;;;;;6.28;58.79;99409.56;5095927;28;20030;-72
2021/03/15 03:08:44;;;;;;;1.23;1.13;;;;;;;6.52;58.71;99436.25;5114323;28;20027;-72
2021/03/15 03:11:11;;;;;;;0.93;0.88;;;;;;;6.48;59.20;99429.81;5079149;28;20031;-73
2021/03/15 03:13:37;;;;;;;1.85;0.80;;;;;;;6.42;58.55;99435.97;5095968;28;20016;-73
2021/03/15 03:16:04;;;;;;;1.20;1.10;;;;;;;6.22;59.34;99444.09;5081101;28;20488;-73
2021/03/15 03:18:32;;;;;;;2.42;1.40;;;;;;;6.08;61.16;99445.66;5100206;28;20408;-72
2021/03/15 03:20:59;;;;;;;1.45;1.10;;;;;;;6.03;62.26;99441.19;5099313;28;20031;-72
2021/03/15 03:23:32;;;;;;;1.25;1.13;;;;;;;5.90;62.84;99442.34;5098984;28;20035;-72
2021/03/15 03:26:01;;;;;;;1.15;1.02;;;;;;;5.92;63.74;99440.09;5098941;28;20038;-72
2021/03/15 03:28:28;;;;;;;1.33;1.02;;;;;;;5.89;63.82;99444.31;5117838;28;20024;-72
2021/03/15 03:30:56;;;;;;;3.00;1.60;;;;;;;5.94;63.30;99444.09;5098840;28;20023;-72
2021/03/15 03:33:22;;;;;;;2.13;1.33;;;;;;;5.95;62.28;99451.22;5098805;28;20028;-72
2021/03/15 03:35:49;;;;;;;1.20;1.10;;;;;;;5.89;62.04;99451.78;5099028;28;20039;-73
2021/03/15 03:38:15;;;;;;;1.25;1.15;;;;;;;5.74;62.87;99454.09;5082183;28;20036;-72
2021/03/15 03:40:41;;;;;;;2.20;1.10;;;;;;;5.59;63.84;99446.53;5098692;28;20114;-72
2021/03/15 03:43:07;;;;;;;2.35;1.58;;;;;;;5.45;64.40;99446.91;5098669;28;20063;-73
2021/03/15 03:45:33;;;;;;;1.45;1.10;;;;;;;5.47;64.74;99452.88;5098603;28;20032;-72
2021/03/15 03:47:59;;;;;;;8.13;1.77;;;;;;;5.46;64.69;99444.97;5099025;28;20081;-72
2021/03/15 03:50:29;;;;;;;2.67;1.30;;;;;;;5.47;65.59;99441.03;5078111;28;20083;-72
2021/03/15 03:53:16;;;;;;;1.27;1.10;;;;;;;5.61;62.89;99455.28;5095061;28;20056;-72
2021/03/15 03:55:57;;;;;;;2.22;1.33;;;;;;;5.77;62.17;99460.91;5095562;28;20100;-72
2021/03/15 03:58:23;;;;;;;2.08;1.20;;;;;;;5.78;61.42;99462.50;5095538;28;20078;-72
2021/03/15 04:00:56;;;;;;;2.20;1.30;;;;;;;5.78;57.33;99471.59;5095255;28;20106;-72
2021/03/15 04:03:27;;;;;;;3.17;1.50;;;;;;;5.86;56.12;99474.56;5096675;28;20024;-73
2021/03/15 04:06:03;;;;;;;1.20;1.05;;;;;;;6.00;54.66;99469.50;5094769;28;20538;-72
2021/03/15 04:09:01;;;;;;;1.67;1.33;;;;;;;6.11;51.69;99465.09;5094773;28;20031;-72
2021/03/15 04:11:31;;;;;;;2.05;1.88;;;;;;;6.34;49.80;99478.34;5095231;28;20028;-71
2021/03/15 04:13:58;;;;;;;1.88;1.70;;;;;;;6.45;49.28;99473.97;5094670;28;20572;-72
2021/03/15 04:16:43;;;;;;;2.80;2.40;;;;;;;6.68;48.11;99485.25;5094576;28;20028;-72
2021/03/15 04:19:10;;;;;;;1.52;1.40;;;;;;;6.71;48.69;99485.34;5095082;28;20462;-71
2021/03/15 04:21:38;;;;;;;1.35;1.23;;;;;;;6.80;48.78;99497.03;5094481;28;20024;-72
2021/03/15 04:24:06;;;;;;;3.40;1.83;;;;;;;6.75;48.75;99500.03;5095764;28;20110;-72
2021/03/15 04:26:32;;;;;;;2.58;1.55;;;;;;;6.73;49.28;99510.66;5077759;28;20025;-72
2021/03/15 04:29:00;;;;;;;2.72;2.28;;;;;;;6.80;48.93;99499.78;5094193;28;20039;-72
2021/03/15 04:31:27;;;;;;;2.20;1.05;;;;;;;6.81;48.47;99503.34;5094678;28;20028;-73
2021/03/15 04:33:55;;;;;;;2.92;1.50;;;;;;;6.79;48.56;99500.94;5096137;28;20040;-72
2021/03/15 04:36:21;;;;;;;1.23;0.90;;;;;;;6.90;48.80;99505.97;5095275;28;20024;-73
2021/03/15 04:38:48;;;;;;;0.77;0.75;;;;;;;6.83;49.32;99512.13;5078765;28;20132;-72
2021/03/15 04:41:16;;;;;;;1.60;0.93;;;;;;;6.81;49.18;99508.88;5077747;28;20032;-72
2021/03/15 04:43:45;;;;;;;3.05;2.53;;;;;;;6.70;48.37;99511.34;5094092;28;20020;-71
2021/03/15 04:46:11;;;;;;;3.13;2.80;;;;;;;6.42;48.21;99463.59;5094267;28;20028;-72
2021/03/15 04:48:39;;;;;;;3.10;2.70;;;;;;;6.73;48.84;99507.91;5077135;28;20393;-71
2021/03/15 04:51:06;;;;;;;1.65;1.40;;;;;;;6.79;47.80;99517.53;5093871;28;20058;-72
2021/03/15 04:53:36;;;;;;;2.05;1.85;;;;;;;6.79;47.53;99517.53;5094393;28;20023;-72
2021/03/15 04:56:08;;;;;;;1.75;1.63;;;;;;;6.84;47.48;99522.00;5094124;28;20024;-71
2021/03/15 04:58:36;;;;;;;1.52;1.42;;;;;;;6.83;48.37;99518.44;5093793;28;20024;-72
2021/03/15 05:01:03;;;;;;;0.90;0.90;;;;;;;6.76;48.30;99522.97;5095283;28;20031;-72
2021/03/15 05:03:31;;;;;;;1.15;0.95;;;;;;;6.74;48.70;99522.53;5093774;28;20115;-72
2021/03/15 05:05:58;;;;;;;2.05;1.02;;;;;;;6.68;48.15;99521.19;5093697;28;20043;-71
2021/03/15 05:08:31;;;;;;;1.63;1.17;;;;;;;6.73;47.46;99532.78;5094072;28;20024;-72
2021/03/15 05:11:00;;;;;;;5.32;0.90;;;;;;;6.77;46.98;99524.59;5093570;28;20181;-72
2021/03/15 05:13:26;;;;;;;3.00;1.30;;;;;;;6.79;45.79;99525.84;5093567;28;20489;-72
2021/03/15 05:15:53;;;;;;;0.88;0.82;;;;;;;6.85;45.96;99520.06;5094835;28;20047;-71
2021/03/15 05:18:20;;;;;;;0.80;0.70;;;;;;;6.83;45.64;99526.75;5093515;28;20467;-72
2021/03/15 05:20:46;;;;;;;1.38;0.90;;;;;;;6.81;46.64;99537.34;5093461;28;20028;-72
2021/03/15 05:23:13;;;;;;;0.82;0.82;;;;;;;6.78;46.57;99538.06;5093389;28;20031;-71
2021/03/15 05:25:42;;;;;;;1.25;0.77;;;;;;;6.85;45.89;99540.22;5093561;28;20053;-72
2021/03/15 05:28:10;;;;;;;0.80;0.80;;;;;;;6.90;46.07;99539.94;5094813;28;20031;-72
2021/03/15 05:30:36;;;;;;;0.98;0.73;;;;;;;6.90;46.47;99541.91;5076855;28;20466;-72
2021/03/15 05:33:04;;;;;;;0.98;0.93;;;;;;;7.26;45.95;99505.72;5093187;28;20116;-72
2021/03/15 05:35:30;;;;;;;0.65;0.65;;;;;;;8.33;43.74;99527.59;5076490;28;20036;-72
2021/03/15 05:37:57;;;;;;;3.13;0.70;;;;;;;9.00;40.76;99543.19;5094375;28;20024;-72
2021/03/15 05:40:24;;;;;;;0.50;0.50;;;;;;;9.55;39.49;99543.78;5092484;28;20101;-72
2021/03/15 05:43:05;;;;;;;1.02;1.02;;;;;;;10.31;37.56;99555.69;5093558;28;20063;-72
2021/03/15 05:46:07;;;;;;;0.80;0.80;;;;;;;10.77;36.03;99558.28;5092974;28;20036;-72
2021/03/15 05:48:55;;;;;;;0.32;0.32;;;;;;;11.10;33.67;99562.22;5093546;28;20028;-72
2021/03/15 05:51:27;;;;;;;1.25;0.65;;;;;;;11.68;33.90;99567.16;5093750;28;20071;-73
2021/03/15 05:54:28;;;;;;;0.80;0.60;;;;;;;11.98;33.23;99578.97;5093649;28;20027;-73
2021/03/15 05:57:13;;;;;;;0.70;0.70;;;;;;;12.37;32.87;99578.44;5037961;28;20044;-72
2021/03/15 06:00:09;;;;;;;0.70;0.70;;;;;;;12.56;31.73;99580.94;5076315;28;20027;-72
2021/03/15 06:03:00;;;;;;;0.52;0.50;;;;;;;12.99;31.62;99592.28;5092686;28;20038;-72
2021/03/15 06:05:30;;;;;;;0.50;0.50;;;;;;;13.34;31.80;99588.81;5093530;28;20031;-72
2021/03/15 06:08:04;;;;;;;0.40;0.40;;;;;;;13.56;31.03;99609.22;5092866;28;20458;-72
2021/03/15 06:10:42;;;;;;;0.77;0.77;;;;;;;13.33;32.34;99617.19;5092659;28;20038;-72
2021/03/15 06:13:13;;;;;;;0.63;0.63;;;;;;;13.58;32.43;99614.41;5092562;28;20123;-72
2021/03/15 06:15:47;;;;;;;1.55;0.90;;;;;;;13.41;33.49;99618.78;5075958;28;20028;-72
2021/03/15 06:18:16;;;;;;;1.05;0.85;;;;;;;13.34;33.14;99625.16;5092848;28;20020;-73
2021/03/15 06:20:48;;;;;;;1.05;1.05;;;;;;;12.99;33.41;99636.16;5092820;28;20470;-72
2021/03/15 06:23:15;;;;;;;1.80;1.00;;;;;;;13.44;33.32;99631.16;5093807;28;20144;-73
2021/03/15 06:25:42;;;;;;;2.20;0.85;;;;;;;13.48;33.25;99635.56;5093072;28;20023;-72
2021/03/15 06:28:09;;;;;;;1.10;1.00;;;;;;;13.31;33.40;99636.31;5092659;28;20028;-72
2021/03/15 06:30:38;;;;;;;5.90;3.75;;;;;;;13.66;32.52;99632.00;5092441;28;20059;-72
2021/03/15 06:33:06;;;;;;;1.73;1.60;;;;;;;14.07;32.99;99638.84;5092521;28;20027;-73
2021/03/15 06:35:42;;;;;;;1.83;1.17;;;;;;;14.14;31.96;99635.22;5092462;28;20027;-73
2021/03/15 06:38:08;;;;;;;1.30;0.80;;;;;;;14.01;32.39;99636.81;5092740;28;20040;-73
2021/03/15 06:40:41;;;;;;;2.25;1.27;;;;;;;12.97;35.04;99644.13;5092347;28;20059;-73
2021/03/15 06:43:13;;;;;;;2.75;1.80;;;;;;;12.96;35.32;99642.53;5093676;28;20031;-73
2021/03/15 06:45:39;;;;;;;1.88;1.60;;;;;;;12.92;36.27;99648.09;5092280;28;20031;-72
2021/03/15 06:48:05;;;;;;;1.60;1.50;;;;;;;13.25;35.13;99654.66;5092593;28;20534;-73
2021/03/15 06:50:31;;;;;;;1.85;1.20;;;;;;;12.78;35.91;99664.78;5092082;28;20044;-73
2021/03/15 06:53:00;;;;;;;3.15;1.40;;;;;;;12.26;37.39;99666.84;5096321;28;20100;-73
2021/03/15 06:55:43;;;;;;;1.55;1.33;;;;;;;12.33;37.64;99667.69;5098206;28;20489;-73
2021/03/15 06:58:18;;;;;;;2.30;2.13;;;;;;;12.91;36.83;99668.84;5098237;28;20027;-73
2021/03/15 07:00:47;;;;;;;4.65;1.83;;;;;;;12.98;36.28;99668.88;5098513;28;20073;-73
2021/03/15 07:03:23;;;;;;;1.63;1.52;;;;;;;12.98;36.33;99676.44;5081085;28;20040;-74
2021/03/15 07:05:56;;;;;;;1.80;1.70;;;;;;;12.90;35.83;99680.41;5096357;28;20035;-72
2021/03/15 07:08:23;;;;;;;1.30;1.20;;;;;;;12.98;34.65;99680.03;5095993;28;20085;-73
2021/03/15 07:10:56;;;;;;;2.50;1.20;;;;;;;13.17;34.49;99690.13;5095851;28;20032;-73
2021/03/15 07:13:24;;;;;;;2.65;1.23;;;;;;;13.21;33.74;99688.19;5096637;28;20339;-73
2021/03/15 07:15:55;;;;;;;1.38;1.27;;;;;;;14.12;33.20;99691.59;5096056;28;20028;-73
2021/03/15 07:18:25;;;;;;;1.25;1.15;;;;;;;14.07;32.98;99692.00;5095458;28;20028;-73
2021/03/15 07:20:59;;;;;;;3.15;1.20;;;;;;;15.24;32.64;99693.03;5096225;28;20020;-73
2021/03/15 07:23:38;;;;;;;;;;;;;;;15.03;31.30;99702.31;5095930;28;20024;-72
2021/03/15 07:26:21;;;;;;;1.05;0.98;;;;;;;14.99;31.00;99698.72;5096738;28;19933;-72
2021/03/15 07:28:48;;;;;;;1.40;1.30;;;;;;;15.86;31.25;99699.94;5096138;28;20028;-73
2021/03/15 07:31:19;;;;;;;1.17;1.13;;;;;;;15.28;29.78;99670.59;5095469;28;20515;-73
2021/03/15 07:33:54;;;;;;;1.85;1.20;;;;;;;15.62;29.48;99694.06;5095435;28;20031;-73
2021/03/15 07:36:20;;;;;;;1.90;1.00;;;;;;;15.22;29.67;99700.25;5095328;28;20047;-72
2021/03/15 07:38:47;;;;;;;2.15;1.00;;;;;;;14.87;30.63;99696.34;5095365;28;20497;-72
2021/03/15 07:41:14;;;;;;;2.40;1.35;;;;;;;14.64;29.46;99699.59;5095521;28;20101;-72
2021/03/15 07:43:40;;;;;;;1.60;0.95;;;;;;;13.80;31.16;99707.53;5096253;28;20073;-73
2021/03/15 07:46:19;;;;;;;16.95;10.73;;;;;;;13.27;31.08;99708.16;5095532;28;20112;-72
2021/03/15 07:48:51;;;;;;;2.85;2.30;;;;;;;14.38;30.50;99692.38;5095191;28;20080;-73
2021/03/15 07:51:37;;;;;;;0.80;0.80;;;;;;;14.30;30.63;99704.78;5095019;28;20648;-73
2021/03/15 07:54:10;;;;;;;2.13;1.48;;;;;;;14.40;30.92;99706.78;5094441;28;20032;-73
2021/03/15 07:56:37;;;;;;;1.30;1.17;;;;;;;14.02;30.02;99705.56;5095027;28;20021;-73
2021/03/15 07:59:04;;;;;;;1.75;1.33;;;;;;;14.49;28.92;99704.41;5094954;28;20102;-73
2021/03/15 08:01:31;;;;;;;1.40;1.30;;;;;;;15.71;29.23;99705.66;5094747;28;20035;-73
2021/03/15 08:03:57;;;;;;;1.15;1.00;;;;;;;16.32;28.03;99704.44;5094856;28;20516;-73
2021/03/15 08:06:23;;;;;;;2.28;1.98;;;;;;;16.14;27.76;99713.81;5094737;28;20036;-73
2021/03/15 08:08:51;;;;;;;1.85;1.70;;;;;;;15.63;27.30;99709.72;5095661;28;20020;-72
2021/03/15 08:11:19;;;;;;;2.53;1.73;;;;;;;16.61;27.12;99722.63;5094715;28;20032;-73
2021/03/15 08:13:47;;;;;;;1.60;1.35;;;;;;;16.24;26.72;99724.16;5095224;28;20055;-73
2021/03/15 08:16:17;;;;;;;2.75;2.03;;;;;;;16.46;25.85;99704.34;5095586;28;20471;-73
2021/03/15 08:18:44;;;;;;;1.90;1.70;;;;;;;16.89;25.24;99721.63;5094564;28;20541;-73
2021/03/15 08:21:36;;;;;;;1.50;1.05;;;;;;;16.63;23.79;99725.84;5094494;28;20036;-73
2021/03/15 08:24:03;;;;;;;0.80;0.80;;;;;;;17.00;23.60;99727.13;5094692;28;20485;-73
2021/03/15 08:26:32;;;;;;;1.52;1.05;;;;;;;17.18;22.74;99733.34;5094283;28;20122;-73
2021/03/15 08:29:00;;;;;;;1.33;1.20;;;;;;;17.23;22.65;99734.91;5094659;28;20426;-73
2021/03/15 08:31:30;;;;;;;1.88;1.20;;;;;;;16.99;22.85;99733.94;5099191;28;20039;-74
2021/03/15 08:33:56;;;;;;;1.15;1.05;;;;;;;17.51;22.37;99728.13;5095086;28;20088;-74
2021/03/15 08:36:23;;;;;;;4.00;0.80;;;;;;;17.37;22.35;99733.94;5077698;28;20032;-73
2021/03/15 08:38:49;;;;;;;6.82;4.43;;;;;;;17.23;21.77;99740.50;5094186;28;20017;-73
2021/03/15 08:41:27;;;;;;;2.08;1.70;;;;;;;17.25;22.02;99736.06;5094114;28;20024;-72
2021/03/15 08:43:54;;;;;;;4.05;2.00;;;;;;;17.31;22.47;99738.41;5094100;28;20035;-72
2021/03/15 08:46:22;;;;;;;0.77;0.77;;;;;;;17.68;20.58;99737.56;5077347;28;20036;-75
2021/03/15 08:49:29;;;;;;;1.10;1.00;;;;;;;17.95;21.06;99740.41;5094001;28;20024;-75
2021/03/15 08:51:55;;;;;;;3.60;1.50;;;;;;;18.06;21.50;99739.06;5083161;28;20040;-75
2021/03/15 08:54:37;;;;;;;6.45;1.77;;;;;;;18.69;21.43;99730.03;5093868;28;20035;-74
2021/03/15 08:57:04;;;;;;;1.50;1.33;;;;;;;18.57;21.19;99736.25;5093776;28;20028;-74
2021/03/15 08:59:32;;;;;;;1.17;1.08;;;;;;;17.90;21.11;99729.66;5093833;28;20477;-73
2021/03/15 09:02:03;;;;;;;1.02;1.00;;;;;;;18.41;21.99;99736.91;5096057;28;20466;-77
2021/03/15 09:04:33;;;;;;;3.20;2.90;;;;;;;18.49;22.88;99729.16;5093258;28;20478;-77
2021/03/15 09:07:00;;;;;;;1.05;0.88;;;;;;;18.79;21.39;99731.88;5095616;28;20031;-76
2021/03/15 09:09:33;;;;;;;0.80;0.80;;;;;;;18.92;20.58;99732.06;5093368;28;20031;-76
2021/03/15 09:12:03;;;;;;;0.90;0.85;;;;;;;19.06;20.75;99722.53;5093215;28;20055;-78
2021/03/15 09:14:37;;;;;;;0.80;0.80;;;;;;;19.23;20.26;99724.22;5075623;28;20066;-78
2021/03/15 09:17:10;;;;;;;0.70;0.70;;;;;;;19.24;19.98;99725.00;5093363;28;20482;-78
2021/03/15 09:19:38;;;;;;;0.88;0.75;;;;;;;19.39;19.13;99717.88;5093016;28;20024;-78
2021/03/15 09:22:22;;;;;;;1.30;1.20;;;;;;;19.73;18.34;99728.84;5092898;28;20539;-78
2021/03/15 09:25:11;;;;;;;1.02;0.95;;;;;;;20.12;18.00;99715.88;5093249;28;20466;-75
2021/03/15 09:27:46;;;;;;;0.60;0.60;;;;;;;20.52;17.27;99724.25;5092903;28;20059;-78
2021/03/15 09:30:20;;;;;;;1.75;1.65;;;;;;;19.92;17.67;99720.78;5093419;28;20356;-75
2021/03/15 09:32:53;;;;;;;0.85;0.73;;;;;;;19.51;18.04;99725.66;5092586;28;20031;-78
2021/03/15 09:35:40;;;;;;;1.42;1.33;;;;;;;19.79;23.50;99729.94;5094618;28;20067;-79
2021/03/15 09:38:06;;;;;;;1.58;0.70;;;;;;;19.81;18.66;99721.81;5093056;28;20382;-75
2021/03/15 09:40:35;;;;;;;2.10;1.60;;;;;;;19.93;18.74;99722.38;5093257;28;20028;-72
2021/03/15 09:43:01;;;;;;;0.63;0.63;;;;;;;20.20;17.62;99720.13;5092261;28;20119;-72
2021/03/15 09:45:35;;;;;;;1.23;1.05;;;;;;;19.75;18.43;99723.56;5092508;28;20030;-72
2021/03/15 09:48:03;;;;;;;1.63;1.10;;;;;;;19.94;18.43;99718.31;5092808;28;20544;-74
2021/03/15 09:50:33;;;;;;;1.05;0.80;;;;;;;19.95;18.20;99711.44;5092357;28;20050;-75
2021/03/15 09:53:06;;;;;;;0.68;0.68;;;;;;;19.79;17.33;99710.16;5092604;28;20490;-74
2021/03/15 09:55:32;;;;;;;0.82;0.80;;;;;;;19.23;17.94;99723.41;5092469;28;20024;-74
2021/03/15 09:58:16;;;;;;;1.58;1.23;;;;;;;19.14;17.58;99712.72;5092892;28;20038;-74
2021/03/15 10:00:43;;;;;;;1.13;0.60;;;;;;;19.33;17.38;99720.41;5093212;28;20024;-74
2021/03/15 10:03:18;;;;;;;0.52;0.52;;;;;;;19.22;17.39;99714.16;5092631;28;20060;-74
2021/03/15 10:05:47;;;;;;;2.20;0.60;;;;;;;18.84;17.88;99717.28;5092448;28;20032;-75
2021/03/15 10:08:15;;;;;;;0.50;0.50;;;;;;;19.46;17.18;99694.34;5092464;28;20024;-75
2021/03/15 10:10:41;;;;;;;0.40;0.40;;;;;;;19.59;17.33;99704.53;5092834;28;20493;-75
2021/03/15 10:13:07;;;;;;;1.02;1.00;;;;;;;20.24;17.12;99703.06;5092265;28;20123;-72
2021/03/15 10:15:33;;;;;;;1.02;0.90;;;;;;;20.19;17.05;99710.06;5091906;28;20026;-72
2021/03/15 10:17:59;;;;;;;2.05;0.70;;;;;;;20.02;17.06;99695.13;5092072;28;20111;-72
2021/03/15 10:20:27;;;;;;;2.10;1.90;;;;;;;20.12;16.21;99701.75;5092771;28;20082;-72
2021/03/15 10:22:54;;;;;;;0.80;0.80;;;;;;;20.48;16.18;99704.53;5091906;28;20036;-72
2021/03/15 10:25:22;;;;;;;0.80;0.80;;;;;;;19.95;15.66;99700.94;5076510;28;20028;-75
2021/03/15 10:27:57;;;;;;;1.15;0.80;;;;;;;20.52;15.75;99707.28;5096115;28;20027;-72
2021/03/15 10:30:28;;;;;;;1.90;0.68;;;;;;;19.82;16.76;99706.47;5096709;28;20393;-74
2021/03/15 10:32:53;;;;;;;0.60;0.60;;;;;;;20.29;15.88;99705.38;5096195;28;20028;-72
2021/03/15 10:35:20;;;;;;;0.88;0.57;;;;;;;20.00;15.09;99693.97;5096015;28;20025;-74
2021/03/15 10:37:50;;;;;;;0.50;0.50;;;;;;;19.82;16.03;99709.31;5096018;28;20463;-74
2021/03/15 10:40:19;;;;;;;0.60;0.57;;;;;;;19.93;15.66;99694.16;5096159;28;20035;-74
2021/03/15 10:42:45;;;;;;;0.88;0.50;;;;;;;20.06;15.76;99686.56;5096008;28;20066;-74
2021/03/15 10:45:12;;;;;;;0.50;0.50;;;;;;;20.34;16.74;99697.16;5095566;28;20031;-72
2021/03/15 10:47:40;;;;;;;2.38;0.57;;;;;;;20.22;16.94;99682.97;5096629;28;20386;-72
2021/03/15 10:50:24;;;;;;;1.40;0.98;;;;;;;20.27;16.80;99685.25;5098776;28;20044;-74
2021/03/15 10:52:50;;;;;;;1.27;0.65;;;;;;;19.98;16.62;99671.84;5099185;28;20076;-72
2021/03/15 10:55:22;;;;;;;1.65;0.50;;;;;;;19.44;15.95;99668.56;5098954;28;20027;-74
2021/03/15 10:57:58;;;;;;;1.20;1.10;;;;;;;19.32;16.33;99670.84;5098936;28;20034;-75
2021/03/15 11:00:27;;;;;;;1.10;1.00;;;;;;;19.83;15.62;99667.75;5099884;28;20096;-75
2021/03/15 11:02:52;;;;;;;3.05;0.88;;;;;;;19.61;16.38;99679.53;5082415;28;20035;-72
2021/03/15 11:05:18;;;;;;;1.17;0.90;;;;;;;19.57;16.88;99672.34;5099127;28;20072;-72
2021/03/15 11:07:45;;;;;;;0.40;0.40;;;;;;;19.96;15.90;99659.38;5098975;28;20064;-73
2021/03/15 11:10:32;;;;;;;0.73;0.73;;;;;;;20.27;16.51;99668.31;5099689;28;20054;-75
2021/03/15 11:13:00;;;;;;;1.02;0.70;;;;;;;19.74;17.60;99654.22;5098687;28;20135;-73
2021/03/15 11:15:33;;;;;;;0.82;0.77;;;;;;;19.91;20.22;99662.72;5099046;28;20031;-73
2021/03/15 11:17:58;;;;;;;1.13;1.02;;;;;;;19.97;21.41;99660.97;5099415;28;20472;-76
2021/03/15 11:20:53;;;;;;;0.77;0.77;;;;;;;19.72;21.90;99639.78;5098712;28;20066;-76
2021/03/15 11:23:54;;;;;;;1.23;0.90;;;;;;;20.30;21.70;99665.41;5077485;28;20042;-81
2021/03/15 11:26:19;;;;;;;2.05;1.60;;;;;;;19.92;21.91;99644.53;5098391;28;20039;-74
2021/03/15 11:28:57;;;;;;;3.70;0.95;;;;;;;20.13;21.71;99653.31;5098382;28;20028;-75
2021/03/15 11:31:29;;;;;;;3.05;1.02;;;;;;;19.84;20.67;99660.88;5116459;28;20028;-77
2021/03/15 11:33:57;;;;;;;0.88;0.52;;;;;;;19.89;16.92;99641.38;5098722;28;20028;-76
2021/03/15 11:36:25;;;;;;;1.50;0.75;;;;;;;19.67;17.33;99645.16;5098010;28;20409;-76
2021/03/15 11:38:55;;;;;;;0.70;0.70;;;;;;;19.36;17.70;99640.53;5097860;28;20031;-76
2021/03/15 11:41:25;;;;;;;1.73;1.13;;;;;;;19.15;17.86;99632.53;5098492;28;20066;-77
2021/03/15 11:43:51;;;;;;;4.72;1.00;;;;;;;18.90;17.51;99624.56;5099119;28;20117;-76
2021/03/15 11:46:18;;;;;;;2.72;1.33;;;;;;;18.90;18.22;99623.78;5098715;28;20043;-75
2021/03/15 11:48:44;;;;;;;1.10;1.00;;;;;;;18.87;18.05;99617.00;5098194;28;20049;-75
2021/03/15 11:51:12;;;;;;;1.40;1.30;;;;;;;18.25;18.23;99624.94;5094657;28;20139;-75
2021/03/15 11:53:37;;;;;;;2.03;1.30;;;;;;;18.04;18.49;99622.47;5095701;28;20115;-75